This is the latest recevied weather packets stored in our database for station/object WS2Z. If no packets are shown the sender has not sent any weather packets the latest 10 day(s).
| Time | Temp. | Humidity | Pressure | Rain* | Wind** | Luminosity | Snow |
|---|---|---|---|---|---|---|---|
| 1777921134 | 27.78° C | 64% | 1014.1 hPa | 0 mm | - | 121 W/m² | - |
| 1777920527 | 28.33° C | 62% | 1014.3 hPa | 0 mm | - | 145 W/m² | - |
| 1777919919 | 28.33° C | 63% | 1014.5 hPa | 0 mm | - | 136 W/m² | - |
| 1777919616 | 27.78° C | 65% | 1014.7 hPa | 0 mm | - | 111 W/m² | - |
| 1777919314 | 27.78° C | 65% | 1014.8 hPa | 0 mm | - | 98 W/m² | - |
| 1777919011 | 28.33° C | 64% | 1014.6 hPa | 0 mm | - | 106 W/m² | - |
| 1777918708 | 28.33° C | 64% | 1014.7 hPa | 0 mm | - | 133 W/m² | - |
| 1777918405 | 28.89° C | 63% | 1014.8 hPa | 0 mm | - | 140 W/m² | - |
| 1777918104 | 29.44° C | 61% | 1014.8 hPa | 0 mm | - | 184 W/m² | - |
| 1777917802 | 28.33° C | 64% | 1014.7 hPa | 0 mm | - | 899 W/m² | - |
| 1777917500 | 28.33° C | 65% | 1014.7 hPa | 0 mm | - | 239 W/m² | - |
| 1777916895 | 28.33° C | 64% | 1014.9 hPa | 0 mm | - | 882 W/m² | - |
| 1777916592 | 28.33° C | 65% | 1014.9 hPa | 0 mm | - | 875 W/m² | - |
| 1777916288 | 28.33° C | 66% | 1015.1 hPa | 0 mm | - | 900 W/m² | - |
| 1777915985 | 28.33° C | 64% | 1015.1 hPa | 0 mm | - | 869 W/m² | - |
| 1777915683 | 27.78° C | 67% | 1015.1 hPa | 0 mm | - | 348 W/m² | - |
| 1777915379 | 27.22° C | 69% | 1015.3 hPa | 0 mm | - | 990 W/m² | - |
| 1777915075 | 27.22° C | 67% | 1015.4 hPa | 0 mm | - | 263 W/m² | - |
| 1777914469 | 27.78° C | 66% | 1015.5 hPa | 0 mm | - | 226 W/m² | - |
| 1777914166 | 27.78° C | 66% | 1015.6 hPa | 0 mm | - | 213 W/m² | - |
| 1777913863 | 27.78° C | 65% | 1015.7 hPa | 0 mm | - | 549 W/m² | - |
| 1777913559 | 27.78° C | 66% | 1015.6 hPa | 0 mm | - | 258 W/m² | - |
| 1777913255 | 27.22° C | 68% | 1015.8 hPa | 0 mm | - | 953 W/m² | - |
| 1777912648 | 26.67° C | 69% | 1016 hPa | 0 mm | - | 954 W/m² | - |
| 1777912344 | 26.67° C | 69% | 1015.8 hPa | 0 mm | - | 286 W/m² | - |
* Rain latest hour (hover to see other rain measurements)
** Current wind speed in m/s (hover to see current wind gust speed)